createdAt,value
2016-06-06T08:40:12.308Z,54.61
2016-06-06T08:41:12.358Z,54.51
2016-06-06T08:42:12.408Z,54.61
2016-06-06T08:43:12.458Z,55.19
2016-06-06T08:44:12.522Z,54.9
2016-06-06T08:45:12.572Z,54.13
2016-06-06T08:46:12.621Z,53.45
2016-06-06T08:47:12.718Z,54.05
2016-06-06T08:48:12.705Z,54.15
2016-06-06T08:49:12.786Z,52.89
2016-06-06T08:50:12.835Z,53.41
2016-06-06T08:51:12.885Z,53.28
2016-06-06T08:52:12.935Z,52.82
2016-06-06T08:53:12.984Z,53.11
2016-06-06T08:54:13.034Z,52.82
2016-06-06T08:55:13.099Z,52.34
2016-06-06T08:56:13.148Z,52.92
2016-06-06T08:57:13.198Z,53.02
2016-06-06T08:58:13.247Z,53.21
2016-06-06T08:59:13.141Z,54.17
2016-06-06T09:00:13.346Z,53.89
2016-06-06T09:01:13.396Z,53.99
2016-06-06T09:02:13.446Z,54.08
2016-06-06T09:03:13.495Z,54.93
2016-06-06T09:04:13.420Z,54.15
2016-06-06T09:05:13.610Z,54.05
2016-06-06T09:06:13.644Z,53.79
2016-06-06T09:07:13.709Z,54.08
2016-06-06T09:08:13.758Z,53.31
2016-06-06T09:09:13.825Z,53.02
2016-06-06T09:10:13.873Z,53.5
2016-06-06T09:11:13.908Z,52.44
2016-06-06T09:12:13.973Z,52.82
2016-06-06T09:13:14.022Z,52.75
2016-06-06T09:14:14.088Z,52.56
2016-06-06T09:15:14.121Z,52.63
2016-06-06T09:16:14.186Z,52.85
2016-06-06T09:17:14.236Z,52.66
2016-06-06T09:18:14.302Z,52.46
2016-06-06T09:19:14.351Z,53.33
2016-06-06T09:20:14.385Z,53.02
2016-06-06T09:21:14.450Z,53.31
2016-06-06T09:22:14.499Z,52.53
2016-06-06T09:23:14.549Z,52.27
2016-06-06T09:24:14.599Z,51.88
2016-06-06T09:25:14.648Z,52.39
2016-06-06T09:26:14.713Z,53.21
2016-06-06T09:27:14.763Z,52.92
2016-06-06T09:28:14.813Z,52.66
2016-06-06T09:29:14.721Z,53.14
2016-06-06T09:30:14.912Z,52.75
2016-06-06T09:31:14.961Z,52.17
2016-06-06T09:32:15.011Z,52.66
2016-06-06T09:33:15.060Z,53.5
2016-06-06T09:34:15.110Z,52.56
2016-06-06T09:35:15.176Z,52.85
2016-06-06T09:36:15.068Z,52.46
2016-06-06T09:37:15.290Z,51.59
2016-06-06T09:38:15.323Z,51.72
2016-06-06T09:39:15.389Z,51.04
2016-06-06T09:40:15.439Z,51.62
2016-06-06T09:41:15.489Z,51.45
2016-06-06T09:42:15.538Z,51.62
2016-06-06T09:43:15.587Z,51.04
2016-06-06T09:44:15.543Z,50.96
2016-06-06T09:45:15.703Z,50.48
2016-06-06T09:46:15.752Z,50.77
2016-06-06T09:47:15.895Z,49.99
2016-06-06T09:48:15.850Z,49.92
2016-06-06T09:49:15.900Z,50.12
2016-06-06T09:50:15.965Z,49.8
2016-06-06T09:51:15.858Z,49.73
2016-06-06T09:52:16.049Z,50.02
2016-06-06T09:53:16.099Z,49.9
2016-06-06T09:54:16.164Z,49.24
2016-06-06T09:55:16.213Z,49.15
2016-06-06T09:56:16.279Z,49.73
2016-06-06T09:57:16.329Z,50.7
2016-06-06T09:58:16.377Z,49.9
2016-06-06T09:59:16.474Z,49.34
2016-06-06T10:00:16.477Z,48.85
2016-06-06T10:01:16.558Z,48.1
2016-06-06T10:02:16.592Z,47.64
2016-06-06T10:03:16.626Z,46.86
2016-06-06T10:04:16.690Z,47.74
2016-06-06T10:05:16.756Z,47.55
2016-06-06T10:06:16.806Z,47.35
2016-06-06T10:07:16.856Z,47.45
2016-06-06T10:08:16.936Z,46.79
2016-06-06T10:09:16.970Z,47.38
2016-06-06T10:10:17.019Z,47.55
2016-06-06T10:11:17.070Z,48.03
2016-06-06T10:12:17.119Z,47.06
2016-06-06T10:13:17.183Z,46.41
2016-06-06T10:14:17.234Z,46.6
2016-06-06T10:15:17.267Z,45.72
2016-06-06T10:16:17.333Z,45.75
2016-06-06T10:17:17.397Z,45.75
2016-06-06T10:18:17.447Z,45.84
2016-06-06T10:19:17.497Z,45.65
2016-06-06T10:20:17.547Z,45.75
2016-06-06T10:21:17.596Z,45.65
2016-06-06T10:22:17.661Z,45.48
2016-06-06T10:23:17.711Z,44.51
2016-06-06T10:24:17.760Z,43.46
2016-06-06T10:25:17.825Z,42.99
2016-06-06T10:26:17.875Z,41.75
2016-06-06T10:27:17.924Z,41.65
2016-06-06T10:28:17.989Z,41.48
2016-06-06T10:29:18.461Z,41.19
2016-06-06T10:30:18.088Z,40.99
2016-06-06T10:31:18.154Z,41.09
2016-06-06T10:32:18.187Z,40.99
2016-06-06T10:33:18.237Z,41.09
2016-06-06T10:34:18.303Z,41.28
2016-06-06T10:35:18.352Z,41.48
2016-06-06T10:36:18.401Z,41.28
2016-06-06T10:37:18.451Z,41.09
2016-06-06T10:38:18.516Z,41.28
2016-06-06T10:39:18.582Z,40.41
2016-06-06T10:40:18.615Z,40.01
2016-06-06T10:41:18.681Z,40.42
2016-06-06T10:42:18.745Z,40.33
2016-06-06T10:43:18.780Z,39.55
2016-06-06T10:44:19.767Z,39.28
2016-06-06T10:45:18.911Z,39.08
2016-06-06T10:46:18.788Z,38.89
2016-06-06T10:47:19.056Z,38.51
2016-06-06T10:48:19.075Z,38.42
2016-06-06T10:49:19.155Z,37.95
2016-06-06T10:50:19.174Z,37.65
2016-06-06T10:51:19.224Z,37.37
2016-06-06T10:52:19.289Z,36.8
2016-06-06T10:53:19.369Z,36.51
2016-06-06T10:54:19.388Z,36.41
2016-06-06T10:55:19.453Z,36.23
2016-06-06T10:56:19.518Z,36.04
2016-06-06T10:57:19.568Z,36.04
2016-06-06T10:58:19.617Z,36.33
2016-06-06T10:59:19.682Z,36.43
2016-06-06T11:00:19.732Z,36.52
2016-06-06T11:01:19.782Z,35.94
2016-06-06T11:02:19.846Z,35.64
2016-06-06T11:03:19.896Z,36.13
2016-06-06T11:04:19.962Z,35.84
2016-06-06T11:05:19.996Z,36.23
2016-06-06T11:06:20.061Z,35.35
2016-06-06T11:07:20.142Z,35.46
2016-06-06T11:08:20.190Z,34.8
2016-06-06T11:09:20.225Z,35.19
2016-06-06T11:10:20.306Z,34.68
2016-06-06T11:11:20.356Z,35.09
2016-06-06T11:12:20.389Z,35.09
2016-06-06T11:13:20.454Z,35.46
2016-06-06T11:14:20.520Z,35.07
2016-06-06T11:15:20.569Z,34.99
2016-06-06T11:16:20.619Z,34.89
2016-06-06T11:17:20.683Z,34.91
2016-06-06T11:18:20.734Z,35.01
2016-06-06T11:19:20.799Z,35.09
2016-06-06T11:20:20.848Z,35.48
2016-06-06T11:21:20.914Z,35.68
2016-06-06T11:22:20.963Z,36.73
2016-06-06T11:23:20.872Z,35.84
2016-06-06T11:24:21.078Z,34.31
2016-06-06T11:25:21.127Z,34.99
2016-06-06T11:26:21.193Z,34.31
2016-06-06T11:27:21.242Z,34.42
2016-06-06T11:28:21.307Z,34.23
2016-06-06T11:29:21.544Z,34.14
2016-06-06T11:30:21.407Z,34.14
2016-06-06T11:31:21.471Z,33.65
2016-06-06T11:32:21.521Z,33.28
2016-06-06T11:33:21.602Z,32.42
2016-06-06T11:34:21.651Z,32.71
2016-06-06T11:35:21.701Z,32.51
2016-06-06T11:36:21.751Z,31.93
2016-06-06T11:37:21.816Z,31.93
2016-06-06T11:38:21.865Z,31.93
2016-06-06T11:39:21.915Z,32.51
2016-06-06T11:40:21.980Z,32.81
2016-06-06T11:41:22.029Z,32.7
2016-06-06T11:42:22.095Z,32.79
2016-06-06T11:43:22.160Z,33.28
2016-06-06T11:44:22.537Z,33.67
2016-06-06T11:45:23.212Z,32.6
2016-06-06T11:46:22.325Z,32.51
2016-06-06T11:47:22.436Z,32.42
2016-06-06T11:48:22.439Z,31.83
2016-06-06T11:49:22.505Z,31.74
2016-06-06T11:50:22.554Z,31.65
2016-06-06T11:51:22.619Z,31.57
2016-06-06T11:52:22.669Z,31.27
2016-06-06T11:53:22.719Z,31.37
2016-06-06T11:54:22.799Z,31.96
2016-06-06T11:55:22.849Z,31.26
2016-06-06T11:56:22.899Z,30.78
2016-06-06T11:57:22.963Z,30.01
2016-06-06T11:58:23.029Z,30.22
2016-06-06T11:59:23.671Z,30.12
2016-06-06T12:00:22.988Z,30.4
2016-06-06T12:01:23.193Z,31.01
2016-06-06T12:02:23.257Z,31.68
2016-06-06T12:03:23.308Z,31.37
2016-06-06T12:04:23.374Z,30.5
2016-06-06T12:05:23.438Z,30.11
2016-06-06T12:06:23.487Z,29.24
2016-06-06T12:07:23.569Z,29.25
2016-06-06T12:08:23.618Z,28.78
2016-06-06T12:09:23.683Z,29.57
2016-06-06T12:10:23.749Z,29.35
2016-06-06T12:11:23.798Z,29.16
2016-06-06T12:12:23.863Z,29.35
2016-06-06T12:13:23.929Z,28.86
2016-06-06T12:14:23.978Z,28.49
2016-06-06T12:15:24.028Z,28.49
2016-06-06T12:16:24.109Z,28
2016-06-06T12:17:24.173Z,27.02
2016-06-06T12:18:24.223Z,27.91
2016-06-06T12:19:24.289Z,27.81
2016-06-06T12:20:24.338Z,27.02
2016-06-06T12:21:24.481Z,26.84
2016-06-06T12:22:24.469Z,26.74
2016-06-06T12:23:24.533Z,26.65
2016-06-06T12:24:24.599Z,27.05
2016-06-06T12:25:24.663Z,27.43
2016-06-06T12:26:24.697Z,28.41
2016-06-06T12:27:24.778Z,28.09
2016-06-06T12:28:24.843Z,27.6
2016-06-06T12:29:25.658Z,27.12
2016-06-06T12:30:24.880Z,26.84
2016-06-06T12:31:25.039Z,27.04
2016-06-06T12:32:25.089Z,27.23
2016-06-06T12:33:25.138Z,26.84
2016-06-06T12:34:25.203Z,26.75
2016-06-06T12:35:25.269Z,27.34
2016-06-06T12:36:25.334Z,26.36
2016-06-06T12:37:25.399Z,25.99
2016-06-06T12:38:25.307Z,26.58
2016-06-06T12:39:25.514Z,27.15
2016-06-06T12:40:25.579Z,26.74
2016-06-06T12:41:25.645Z,27.25
2016-06-06T12:42:25.709Z,26.95
2016-06-06T12:43:25.760Z,26.67
2016-06-06T12:44:25.840Z,26.67
2016-06-06T12:45:25.748Z,27.15
2016-06-06T12:46:25.954Z,26.95
2016-06-06T12:47:26.082Z,26.93
2016-06-06T12:48:26.085Z,26.85
2016-06-06T12:49:26.150Z,26.46
2016-06-06T12:50:26.215Z,26.97
2016-06-06T12:51:26.265Z,27.34
2016-06-06T12:52:26.330Z,28.02
2016-06-06T12:53:26.411Z,28.51
2016-06-06T12:54:26.476Z,28.12
2016-06-06T12:55:26.526Z,27.92
2016-06-06T12:56:26.575Z,28.41
2016-06-06T12:57:26.640Z,28.91
2016-06-06T12:58:26.705Z,28.02
2016-06-06T12:59:27.333Z,28.51
2016-06-06T13:00:26.852Z,27.23
2016-06-06T13:01:26.917Z,26.65
2016-06-06T13:02:26.810Z,27.06
2016-06-06T13:03:27.047Z,26.75
2016-06-06T13:04:27.096Z,26.47
2016-06-06T13:05:27.178Z,26.19
2016-06-06T13:06:27.227Z,25.32
2016-06-06T13:07:27.292Z,24.93
2016-06-06T13:08:27.358Z,24.95
2016-06-06T13:09:27.423Z,24.45
2016-06-06T13:10:27.488Z,24.06
2016-06-06T13:11:27.553Z,23.97
2016-06-06T13:12:27.603Z,24.96
2016-06-06T13:13:27.684Z,26.02
2016-06-06T13:14:27.796Z,25.82
2016-06-06T13:15:27.814Z,26.01
2016-06-06T13:16:27.864Z,25.32
2016-06-06T13:17:27.928Z,25.43
2016-06-06T13:18:27.994Z,25.04
2016-06-06T13:19:28.059Z,24.95
2016-06-06T13:20:28.125Z,24.45
2016-06-06T13:21:28.189Z,23.87
2016-06-06T13:22:28.270Z,24.07
2016-06-06T13:23:28.320Z,23.38
2016-06-06T13:24:28.385Z,22.7
2016-06-06T13:25:28.450Z,22.3
2016-06-06T13:26:28.516Z,22.02
2016-06-06T13:27:28.580Z,22.33
2016-06-06T13:28:28.646Z,22.52
2016-06-06T13:29:28.570Z,22.52
2016-06-06T13:30:28.776Z,23.11
2016-06-06T13:31:28.841Z,23.19
2016-06-06T13:32:28.938Z,23
2016-06-06T13:33:28.987Z,22.61
2016-06-06T13:34:29.052Z,23.11
2016-06-06T13:35:29.118Z,22.82
2016-06-06T13:36:29.183Z,22.24
2016-06-06T13:37:29.248Z,21.56
2016-06-06T13:38:29.313Z,20.76
2016-06-06T13:39:29.379Z,20.38
2016-06-06T13:40:29.443Z,19.89
2016-06-06T13:41:29.509Z,20.28
2016-06-06T13:42:29.589Z,20.57
2016-06-06T13:43:29.640Z,20.27
2016-06-06T13:44:29.971Z,20.67
2016-06-06T13:45:29.770Z,19.98
2016-06-06T13:46:29.850Z,19.49
2016-06-06T13:47:29.963Z,19.29
2016-06-06T13:48:29.981Z,19.79
2016-06-06T13:49:30.030Z,19.6
2016-06-06T13:50:30.095Z,19.7
2016-06-06T13:51:30.161Z,19.6
2016-06-06T13:52:30.242Z,19.01
2016-06-06T13:53:30.322Z,19.89
2016-06-06T13:54:30.387Z,19.5
2016-06-06T13:55:30.437Z,19.79
2016-06-06T13:56:30.502Z,19.7
2016-06-06T13:57:30.583Z,19.31
2016-06-06T13:58:30.647Z,19.41
2016-06-06T13:59:31.369Z,20.4
2016-06-06T14:00:30.622Z,20.48
2016-06-06T14:01:30.844Z,20.67
2016-06-06T14:02:30.909Z,20.57
2016-06-06T14:03:30.974Z,20.57
2016-06-06T14:04:31.039Z,20.28
2016-06-06T14:05:31.105Z,19.29
2016-06-06T14:06:31.170Z,19.89
2016-06-06T14:07:31.235Z,19.98
2016-06-06T14:08:31.316Z,19.79
2016-06-06T14:09:31.365Z,20.68
2016-06-06T14:10:31.430Z,20.46
2016-06-06T14:11:31.512Z,19.49
2016-06-06T14:12:31.577Z,19.3
2016-06-06T14:13:31.642Z,19.68
2016-06-06T14:14:32.410Z,19.78
2016-06-06T14:15:32.069Z,19.3
2016-06-06T14:16:31.854Z,17.93
2016-06-06T14:17:31.918Z,18.23
2016-06-06T14:18:31.983Z,18.24
2016-06-06T14:19:32.048Z,18.05
2016-06-06T14:20:32.129Z,18.35
2016-06-06T14:21:32.194Z,19.23
2016-06-06T14:22:32.259Z,19.02
2016-06-06T14:23:32.325Z,18.54
2016-06-06T14:24:32.390Z,18.93
2016-06-06T14:25:32.487Z,19.12
2016-06-06T14:26:32.536Z,19.11
2016-06-06T14:27:32.585Z,19.01
2016-06-06T14:28:32.651Z,18.8
2016-06-06T14:29:32.575Z,19.7
2016-06-06T14:30:34.108Z,20
2016-06-06T14:31:32.878Z,19.89
2016-06-06T14:32:32.927Z,19.79
2016-06-06T14:33:32.992Z,19.5
2016-06-06T14:34:33.073Z,20.09
2016-06-06T14:35:33.154Z,20
2016-06-06T14:36:33.188Z,20
2016-06-06T14:37:33.253Z,20.09
2016-06-06T14:38:33.334Z,20.59
2016-06-06T14:39:33.384Z,20.38
2016-06-06T14:40:33.465Z,20.47
2016-06-06T14:41:33.545Z,20.37
2016-06-06T14:42:33.595Z,20.97
2016-06-06T14:43:33.660Z,20.57
2016-06-06T14:44:34.710Z,20.68
2016-06-06T14:45:34.399Z,20.08
2016-06-06T14:46:33.871Z,20
2016-06-06T14:47:33.983Z,20.28
2016-06-06T14:48:33.987Z,20.67
2016-06-06T14:49:34.051Z,20.67
2016-06-06T14:50:34.131Z,21.15
2016-06-06T14:51:34.181Z,21.05
2016-06-06T14:52:34.247Z,20.65
2016-06-06T14:53:34.311Z,20.18
2016-06-06T14:54:34.392Z,19.98
2016-06-06T14:55:34.442Z,19.89
2016-06-06T14:56:34.508Z,20.08
2016-06-06T14:57:34.572Z,19.79
2016-06-06T14:58:34.654Z,20.76
2016-06-06T14:59:34.562Z,20.75
2016-06-06T15:00:35.097Z,20.15
2016-06-06T15:01:36.099Z,19.96
2016-06-06T15:02:34.899Z,20.26
2016-06-06T15:03:34.808Z,20.37
2016-06-06T15:04:35.044Z,20.76
2016-06-06T15:05:35.110Z,20.67
2016-06-06T15:06:35.160Z,19.78
2016-06-06T15:07:35.208Z,20.27
2016-06-06T15:08:35.291Z,20.47
2016-06-06T15:09:35.355Z,20.75
2016-06-06T15:10:35.404Z,21.53
2016-06-06T15:11:35.501Z,20.65
2016-06-06T15:12:35.551Z,20.65
2016-06-06T15:13:35.615Z,22.03
2016-06-06T15:14:36.087Z,21.71
2016-06-06T15:15:35.762Z,21.23
2016-06-06T15:16:35.795Z,21.53
2016-06-06T15:17:35.860Z,22.6
2016-06-06T15:18:35.926Z,21.91
2016-06-06T15:19:35.991Z,22.31
2016-06-06T15:20:36.041Z,23
2016-06-06T15:21:36.106Z,22.78
2016-06-06T15:22:36.171Z,22.88
2016-06-06T15:23:36.237Z,22.88
2016-06-06T15:24:36.302Z,22.48
2016-06-06T15:25:36.351Z,22.88
2016-06-06T15:26:36.416Z,23.07
2016-06-06T15:27:36.481Z,24.33
2016-06-06T15:28:36.531Z,24.12
2016-06-06T15:29:36.956Z,24.99
2016-06-06T15:30:36.678Z,24.51
2016-06-06T15:31:36.727Z,24.99
2016-06-06T15:32:36.792Z,25.77
2016-06-06T15:33:36.841Z,24.97
2016-06-06T15:34:36.923Z,25.27
2016-06-06T15:35:36.972Z,26.15
2016-06-06T15:36:37.022Z,26.43
2016-06-06T15:37:37.071Z,26.34
2016-06-06T15:38:37.152Z,25.85
2016-06-06T15:39:37.202Z,26.25
2016-06-06T15:40:37.266Z,26.73
2016-06-06T15:41:37.332Z,26.73
2016-06-06T15:42:37.381Z,26.61
2016-06-06T15:43:37.446Z,27.09
2016-06-06T15:44:37.512Z,26.9
2016-06-06T15:45:37.858Z,26.8
2016-06-06T15:46:37.627Z,27.09
2016-06-06T15:47:37.738Z,26.7
2016-06-06T15:48:37.741Z,26.59
2016-06-06T15:49:37.807Z,27.08
2016-06-06T15:50:37.857Z,27.85
2016-06-06T15:51:37.921Z,27.46
2016-06-06T15:52:37.987Z,27.74
2016-06-06T15:53:38.051Z,27.17
2016-06-06T15:54:38.085Z,27.26
2016-06-06T15:55:38.167Z,26.58
2016-06-06T15:56:38.215Z,27.07
2016-06-06T15:57:38.281Z,28.05
2016-06-06T15:58:38.331Z,28.23
2016-06-06T15:59:38.959Z,28.23
2016-06-06T16:00:38.648Z,29.2
2016-06-06T16:01:38.511Z,28.79
2016-06-06T16:02:38.576Z,28.99
2016-06-06T16:03:38.625Z,29.08
2016-06-06T16:04:38.691Z,29.48
2016-06-06T16:05:38.740Z,29.68
2016-06-06T16:06:38.821Z,29.08
2016-06-06T16:07:38.870Z,28.71
2016-06-06T16:08:38.920Z,28.99
2016-06-06T16:09:38.970Z,29.18
2016-06-06T16:10:39.035Z,29.97
2016-06-06T16:11:39.100Z,30.55
2016-06-06T16:12:39.150Z,29.77
2016-06-06T16:13:39.216Z,30.93
2016-06-06T16:14:39.561Z,30.35
2016-06-06T16:15:40.533Z,29.97
2016-06-06T16:16:39.379Z,29.87
2016-06-06T16:17:39.444Z,29.97
2016-06-06T16:18:39.494Z,29.87
2016-06-06T16:19:39.544Z,30.16
2016-06-06T16:20:39.609Z,29.97
2016-06-06T16:21:39.690Z,30.55
2016-06-06T16:22:39.724Z,29.97
2016-06-06T16:23:39.788Z,30.16
2016-06-06T16:24:39.870Z,29.97
2016-06-06T16:25:39.904Z,30.27
2016-06-06T16:26:39.984Z,29.87
2016-06-06T16:27:40.034Z,30.07
2016-06-06T16:28:40.084Z,29.97
2016-06-06T16:29:40.320Z,30.08
2016-06-06T16:30:40.261Z,28.91
2016-06-06T16:31:40.264Z,29.21
2016-06-06T16:32:40.312Z,28.82
2016-06-06T16:33:40.362Z,28.54
2016-06-06T16:34:40.459Z,28.15
2016-06-06T16:35:40.493Z,28.34
2016-06-06T16:36:40.542Z,28.72
2016-06-06T16:37:40.608Z,28.53
2016-06-06T16:38:40.673Z,28.25
2016-06-06T16:39:40.738Z,28.15
2016-06-06T16:40:40.803Z,28.64
2016-06-06T16:41:40.853Z,27.46
2016-06-06T16:42:40.907Z,27.95
2016-06-06T16:43:40.837Z,27.85
2016-06-06T16:44:41.359Z,28.25
2016-06-06T16:45:41.117Z,27.97
2016-06-06T16:46:41.172Z,27.08
2016-06-06T16:47:41.271Z,27.28
2016-06-06T16:48:41.291Z,26.79
2016-06-06T16:49:41.356Z,26.89
2016-06-06T16:50:41.408Z,27.19
2016-06-06T16:51:41.475Z,27.78
2016-06-06T16:52:41.525Z,28.26
2016-06-06T16:53:41.591Z,28.85
2016-06-06T16:54:41.657Z,29.03
2016-06-06T16:55:41.723Z,29.03
2016-06-06T16:56:41.758Z,29.13
2016-06-06T16:57:41.824Z,30.6
2016-06-06T16:58:41.888Z,30
2016-06-06T16:59:42.298Z,30.49
2016-06-06T17:00:41.880Z,30.67
2016-06-06T17:01:42.054Z,30.77
2016-06-06T17:02:42.120Z,30.47
2016-06-06T17:03:42.169Z,30.96
2016-06-06T17:04:42.250Z,30.77
2016-06-06T17:05:42.299Z,31.14
2016-06-06T17:06:42.350Z,31.34
2016-06-06T17:07:42.414Z,31.16
2016-06-06T17:08:42.480Z,31.16
2016-06-06T17:09:42.545Z,31.04
2016-06-06T17:10:42.578Z,30.96
2016-06-06T17:11:42.644Z,30.87
2016-06-06T17:12:42.694Z,30.18
2016-06-06T17:13:42.774Z,29.79
2016-06-06T17:14:42.683Z,29.2
2016-06-06T17:15:43.796Z,30.47
2016-06-06T17:16:42.938Z,30.47
2016-06-06T17:17:43.004Z,30.37
2016-06-06T17:18:43.054Z,30.27
2016-06-06T17:19:43.102Z,30.07
2016-06-06T17:20:43.168Z,29.97
2016-06-06T17:21:43.218Z,30.37
2016-06-06T17:22:43.283Z,30.67
2016-06-06T17:23:43.348Z,31.16
2016-06-06T17:24:43.398Z,30.18
2016-06-06T17:25:43.462Z,30.26
2016-06-06T17:26:43.512Z,30.16
2016-06-06T17:27:43.578Z,30.77
2016-06-06T17:28:43.626Z,32.32
2016-06-06T17:29:44.615Z,30.26
2016-06-06T17:30:44.273Z,30.96
2016-06-06T17:31:43.806Z,31.26
2016-06-06T17:32:43.873Z,30.75
2016-06-06T17:33:43.937Z,30.77
2016-06-06T17:34:43.986Z,30.57
2016-06-06T17:35:44.036Z,30.94
2016-06-06T17:36:44.117Z,32.61
2016-06-06T17:37:44.166Z,31.91
2016-06-06T17:38:44.217Z,32.09
2016-06-06T17:39:44.297Z,31.9
2016-06-06T17:40:44.330Z,32.78
2016-06-06T17:41:44.397Z,32.58
2016-06-06T17:42:44.446Z,33.26
2016-06-06T17:43:44.511Z,33.26
2016-06-06T17:44:44.560Z,32.78
2016-06-06T17:45:44.627Z,33.56
2016-06-06T17:46:44.675Z,33.95
2016-06-06T17:47:44.787Z,33.74
2016-06-06T17:48:44.791Z,34.89
2016-06-06T17:49:44.683Z,34.31
2016-06-06T17:50:44.904Z,36.07
2016-06-06T17:51:44.970Z,33.33
2016-06-06T17:52:45.020Z,34.88
2016-06-06T17:53:45.085Z,35.07
2016-06-06T17:54:45.134Z,36.24
2016-06-06T17:55:45.184Z,35.95
2016-06-06T17:56:45.249Z,34.39
2016-06-06T17:57:45.314Z,35.17
2016-06-06T17:58:45.364Z,36.15
2016-06-06T17:59:46.039Z,35.27
2016-06-06T18:00:45.463Z,36.23
2016-06-06T18:01:45.372Z,36.43
2016-06-06T18:02:45.578Z,35.55
2016-06-06T18:03:45.628Z,36.02
2016-06-06T18:04:45.692Z,35.64
2016-06-06T18:05:45.773Z,36.82
2016-06-06T18:06:45.808Z,36.23
2016-06-06T18:07:45.856Z,36.6
2016-06-06T18:08:45.922Z,36.33
2016-06-06T18:09:45.972Z,36.72
2016-06-06T18:10:46.021Z,36.23
2016-06-06T18:11:46.086Z,37.09
2016-06-06T18:12:46.152Z,36.8
2016-06-06T18:13:46.202Z,36.9
2016-06-06T18:14:46.579Z,36.31
2016-06-06T18:15:46.160Z,36.52
2016-06-06T18:16:46.366Z,36.82
2016-06-06T18:17:46.430Z,36.99
2016-06-06T18:18:46.465Z,37.09
2016-06-06T18:19:46.546Z,36.6
2016-06-06T18:20:46.596Z,37.09
2016-06-06T18:21:46.644Z,36.9
2016-06-06T18:22:46.694Z,37.67
2016-06-06T18:23:46.759Z,37.55
2016-06-06T18:24:46.810Z,37.87
2016-06-06T18:25:46.873Z,37.55
2016-06-06T18:26:46.939Z,37.65
2016-06-06T18:27:46.973Z,38.04
2016-06-06T18:28:47.038Z,37.75
2016-06-06T18:29:47.572Z,37.95
2016-06-06T18:30:47.607Z,37.75
2016-06-06T18:31:47.203Z,37.65
2016-06-06T18:32:47.236Z,37.96
2016-06-06T18:33:47.301Z,37.77
2016-06-06T18:34:47.383Z,37.55
2016-06-06T18:35:47.432Z,38.04
2016-06-06T18:36:47.466Z,38.04
2016-06-06T18:37:47.531Z,38.34
2016-06-06T18:38:47.597Z,38.73
2016-06-06T18:39:47.630Z,38.71
2016-06-06T18:40:47.695Z,38.9
2016-06-06T18:41:47.745Z,39.29
2016-06-06T18:42:47.794Z,39.29
2016-06-06T18:43:47.861Z,39.39
2016-06-06T18:44:48.675Z,39.29
2016-06-06T18:45:48.538Z,39.88
2016-06-06T18:46:48.008Z,39.76
2016-06-06T18:47:48.121Z,40.06
2016-06-06T18:48:48.139Z,40.25
2016-06-06T18:49:48.188Z,40.83
2016-06-06T18:50:48.082Z,40.25
2016-06-06T18:51:48.304Z,41.3
2016-06-06T18:52:48.369Z,41.01
2016-06-06T18:53:48.418Z,41.5
2016-06-06T18:54:48.451Z,41.77
2016-06-06T18:55:48.518Z,42.16
2016-06-06T18:56:48.567Z,42.35
2016-06-06T18:57:48.632Z,42.94
2016-06-06T18:58:48.682Z,42.84
2016-06-06T18:59:49.075Z,42.74
2016-06-06T19:00:49.030Z,43.01
2016-06-06T19:01:48.830Z,43.01
2016-06-06T19:02:48.895Z,42.82
2016-06-06T19:03:48.961Z,42.91
2016-06-06T19:04:48.994Z,42.91
2016-06-06T19:05:49.044Z,43.3
2016-06-06T19:06:49.109Z,43.3
2016-06-06T19:07:49.175Z,43.21
2016-06-06T19:08:49.067Z,43.3
2016-06-06T19:09:49.258Z,43.4
2016-06-06T19:10:49.323Z,43.4
2016-06-06T19:11:49.373Z,43.79
2016-06-06T19:12:49.422Z,44.06
2016-06-06T19:13:49.472Z,43.99
2016-06-06T19:14:49.536Z,44.06
2016-06-06T19:15:49.587Z,44.45
2016-06-06T19:16:49.980Z,44.18
2016-06-06T19:17:49.983Z,44.38
2016-06-06T19:18:49.735Z,44.26
2016-06-06T19:19:49.800Z,44.55
2016-06-06T19:20:49.850Z,44.45
2016-06-06T19:21:49.900Z,44.38
2016-06-06T19:22:49.965Z,44.38
2016-06-06T19:23:49.999Z,44.09
2016-06-06T19:24:50.063Z,44.38
2016-06-06T19:25:50.129Z,44.57
2016-06-06T19:26:50.163Z,44.65
2016-06-06T19:27:50.228Z,45.04
2016-06-06T19:28:50.293Z,45.14
2016-06-06T19:29:50.343Z,45.14
2016-06-06T19:30:50.377Z,45.14
2016-06-06T19:31:50.286Z,45.04
2016-06-06T19:32:50.492Z,45.23
2016-06-06T19:33:50.542Z,45.32
2016-06-06T19:34:51.215Z,45.23
2016-06-06T19:35:50.906Z,45.42
2016-06-06T19:36:50.706Z,45.62
2016-06-06T19:37:50.756Z,45.89
2016-06-06T19:38:50.805Z,45.89
2016-06-06T19:39:50.870Z,45.79
2016-06-06T19:40:50.920Z,45.98
2016-06-06T19:41:50.969Z,45.69
2016-06-06T19:42:51.019Z,45.89
2016-06-06T19:43:51.069Z,45.79
2016-06-06T19:44:51.117Z,45.69
2016-06-06T19:45:51.167Z,45.89
2016-06-06T19:46:51.233Z,45.89
2016-06-06T19:47:51.344Z,45.98
2016-06-06T19:48:51.191Z,45.79
2016-06-06T19:49:51.396Z,45.89
2016-06-06T19:50:51.446Z,46.96
2016-06-06T19:51:51.496Z,46.67
2016-06-06T19:52:51.546Z,46.57
2016-06-06T19:53:51.595Z,46.94
2016-06-06T19:54:51.660Z,47.71
2016-06-06T19:55:51.710Z,47.42
2016-06-06T19:56:51.760Z,47.13
2016-06-06T19:57:51.793Z,47.71
2016-06-06T19:58:51.874Z,47.61
2016-06-06T19:59:51.923Z,47.61
2016-06-06T20:00:51.973Z,48.3
2016-06-06T20:01:52.007Z,47.52
2016-06-06T20:02:51.915Z,47.81
2016-06-06T20:03:52.122Z,47.71
2016-06-06T20:04:52.938Z,48
2016-06-06T20:05:52.236Z,49.17
2016-06-06T20:06:52.287Z,47.91
2016-06-06T20:07:52.336Z,48.3
2016-06-06T20:08:52.370Z,48.78
2016-06-06T20:09:52.434Z,48.49
2016-06-06T20:10:52.500Z,48.49
2016-06-06T20:11:52.534Z,48.95
2016-06-06T20:12:52.599Z,48.95
2016-06-06T20:13:52.664Z,49.15
2016-06-06T20:14:52.698Z,49.34
2016-06-06T20:15:52.763Z,49.44
2016-06-06T20:16:52.813Z,49.63
2016-06-06T20:17:52.863Z,49.12
2016-06-06T20:18:52.913Z,49.9
2016-06-06T20:19:52.977Z,49.8
2016-06-06T20:20:53.059Z,49.8
2016-06-06T20:21:53.077Z,49.99
2016-06-06T20:22:53.110Z,49.71
2016-06-06T20:23:53.176Z,50.68
2016-06-06T20:24:53.241Z,50.48
2016-06-06T20:25:53.259Z,49.99
2016-06-06T20:26:53.340Z,49.99
2016-06-06T20:27:53.374Z,50.09
2016-06-06T20:28:53.424Z,49.8
2016-06-06T20:29:53.473Z,49.8
2016-06-06T20:30:53.554Z,49.8
2016-06-06T20:31:53.604Z,50.09
2016-06-06T20:32:53.654Z,49.9
2016-06-06T20:33:53.532Z,49.8
2016-06-06T20:34:54.268Z,49.9
2016-06-06T20:35:54.051Z,50.48
2016-06-06T20:36:53.851Z,50.58
2016-06-06T20:37:53.901Z,50.58
2016-06-06T20:38:53.950Z,50.68
2016-06-06T20:39:54.000Z,50.94
2016-06-06T20:40:54.065Z,50.84
2016-06-06T20:41:54.100Z,50.68
2016-06-06T20:42:54.164Z,50.94
2016-06-06T20:43:54.230Z,50.84
2016-06-06T20:44:54.278Z,51.04
2016-06-06T20:45:54.313Z,51.14
2016-06-06T20:46:54.378Z,51.14
2016-06-06T20:47:54.475Z,51.62
2016-06-06T20:48:54.461Z,51.33
2016-06-06T20:49:54.839Z,51.53
2016-06-06T20:50:54.576Z,50.94
2016-06-06T20:51:54.626Z,51.14
2016-06-06T20:52:54.675Z,51.14
2016-06-06T20:53:54.725Z,51.33
2016-06-06T20:54:54.790Z,51.14
2016-06-06T20:55:54.840Z,51.16
2016-06-06T20:56:54.890Z,51.16
2016-06-06T20:57:54.783Z,50.94
2016-06-06T20:58:54.988Z,50.68
2016-06-06T20:59:55.038Z,50.77
2016-06-06T21:00:55.104Z,50.87
2016-06-06T21:01:55.154Z,50.48
2016-06-06T21:02:55.188Z,50.48
2016-06-06T21:03:55.095Z,50.58
2016-06-06T21:04:55.317Z,50.77
2016-06-06T21:05:55.211Z,50.56
2016-06-06T21:06:55.417Z,50.38
2016-06-06T21:07:55.465Z,50.38
2016-06-06T21:08:55.515Z,50.77
2016-06-06T21:09:55.565Z,50.58
2016-06-06T21:10:55.615Z,50.77
2016-06-06T21:11:55.664Z,50.68
2016-06-06T21:12:55.729Z,50.68
2016-06-06T21:13:55.764Z,50.68
2016-06-06T21:14:55.814Z,51.04
2016-06-06T21:15:55.878Z,51.04
2016-06-06T21:16:55.928Z,51.23
2016-06-06T21:17:55.961Z,51.23
2016-06-06T21:18:56.028Z,50.94
2016-06-06T21:19:56.357Z,51.33
2016-06-06T21:20:56.891Z,51.43
2016-06-06T21:21:56.175Z,51.81
2016-06-06T21:22:56.225Z,51.43
2016-06-06T21:23:56.290Z,51.81
2016-06-06T21:24:56.340Z,52.01
2016-06-06T21:25:56.374Z,52.01
2016-06-06T21:26:56.439Z,51.62
2016-06-06T21:27:56.488Z,51.91
2016-06-06T21:28:56.538Z,51.91
2016-06-06T21:29:56.604Z,52.5
2016-06-06T21:30:56.652Z,52.56
2016-06-06T21:31:56.734Z,52.95
2016-06-06T21:32:56.751Z,52.56
2016-06-06T21:33:56.801Z,53.05
2016-06-06T21:34:57.148Z,52.56
2016-06-06T21:35:56.901Z,52.56